Time;durP1;ratioP1;P1;durP2;ratioP2;P2;SDS_P1;SDS_P2;PMS_P1;PMS_P2;Temp;Humidity;BMP_temperature;BMP_pressure;BME280_temperature;BME280_humidity;BME280_pressure;Samples;Min_cycle;Max_cycle;Signal;HPM_P1;HPM_P2
2023/09/05 00:01:23;;;;;;;5.53;3.80;;;;;;;10.25;100.00;98736.84;6267466;28;20321;-60
2023/09/05 00:04:25;;;;;;;4.43;3.70;;;;;;;10.22;100.00;98729.22;6269128;28;20602;-57
2023/09/05 00:07:27;;;;;;;4.23;3.70;;;;;;;10.18;100.00;98738.66;6267587;28;20233;-59
2023/09/05 00:10:30;;;;;;;4.00;3.60;;;;;;;10.15;100.00;98733.75;6266486;28;20231;-58
2023/09/05 00:13:32;;;;;;;5.50;3.70;;;;;;;10.17;100.00;98734.38;6267072;28;20287;-59
2023/09/05 00:16:34;;;;;;;4.37;3.97;;;;;;;10.18;100.00;98736.00;6261127;28;20231;-59
2023/09/05 00:19:36;;;;;;;4.37;3.57;;;;;;;10.18;100.00;98728.03;6265261;28;20232;-59
2023/09/05 00:22:38;;;;;;;5.17;3.57;;;;;;;10.18;100.00;98739.47;6262377;28;20699;-59
2023/09/05 00:25:41;;;;;;;4.40;3.30;;;;;;;10.24;100.00;98732.50;6266872;28;20234;-59
2023/09/05 00:28:44;;;;;;;3.10;2.90;;;;;;;10.23;100.00;98730.84;6266836;28;20743;-59
2023/09/05 00:31:49;;;;;;;4.20;3.10;;;;;;;10.20;100.00;98732.13;6266580;28;20229;-58
2023/09/05 00:34:51;;;;;;;5.13;3.40;;;;;;;10.18;100.00;98728.03;6268090;28;20306;-53
2023/09/05 00:37:54;;;;;;;4.17;3.77;;;;;;;10.16;100.00;98727.44;6259403;28;20230;-59
2023/09/05 00:40:57;;;;;;;4.67;3.57;;;;;;;10.08;100.00;98718.66;6262259;28;20320;-58
2023/09/05 00:43:59;;;;;;;5.27;4.00;;;;;;;10.02;100.00;98716.03;6265143;28;20364;-58
2023/09/05 00:47:01;;;;;;;4.17;3.43;;;;;;;9.94;100.00;98727.72;6268648;28;20233;-59
2023/09/05 00:50:06;;;;;;;4.83;3.97;;;;;;;9.88;100.00;98720.59;6267043;28;20311;-59
2023/09/05 00:53:09;;;;;;;5.23;3.93;;;;;;;9.86;100.00;98722.66;6265034;28;20255;-55
2023/09/05 00:56:11;;;;;;;5.83;3.90;;;;;;;9.79;100.00;98708.53;6249043;28;20301;-59
2023/09/05 00:59:17;;;;;;;4.87;3.67;;;;;;;9.79;100.00;98708.53;6264568;28;20370;-59
2023/09/05 01:02:19;;;;;;;4.23;3.77;;;;;;;9.80;100.00;98716.34;6268271;28;20226;-59
2023/09/05 01:05:27;;;;;;;5.73;3.87;;;;;;;9.81;100.00;98704.66;6265299;28;20236;-59
2023/09/05 01:08:37;;;;;;;4.80;3.80;;;;;;;9.86;100.00;98708.53;6257470;28;20222;-59
2023/09/05 01:11:41;;;;;;;4.30;3.90;;;;;;;9.93;100.00;98699.47;6259524;28;20815;-59
2023/09/05 01:14:43;;;;;;;4.47;3.50;;;;;;;10.00;100.00;98699.44;6264276;28;20262;-59
2023/09/05 01:17:48;;;;;;;4.07;3.43;;;;;;;9.92;100.00;98692.53;6265835;28;20251;-58
2023/09/05 01:21:19;;;;;;;4.13;3.60;;;;;;;9.98;100.00;98704.16;6265150;28;20247;-57
2023/09/05 01:24:21;;;;;;;3.33;3.03;;;;;;;9.96;100.00;98701.72;6263495;28;20234;-59
2023/09/05 01:27:26;;;;;;;4.27;3.23;;;;;;;9.96;100.00;98711.56;6260952;28;20262;-59
2023/09/05 01:30:28;;;;;;;3.87;3.50;;;;;;;9.72;100.00;98673.19;6264383;28;20264;-59
2023/09/05 01:33:38;;;;;;;4.37;3.40;;;;;;;9.88;100.00;98701.16;6246889;28;20677;-58
2023/09/05 01:36:40;;;;;;;4.03;3.53;;;;;;;9.74;100.00;98695.88;6267303;28;20234;-59
2023/09/05 01:39:43;;;;;;;4.00;3.50;;;;;;;9.67;100.00;98683.63;6271930;28;20673;-59
2023/09/05 01:42:45;;;;;;;6.70;3.70;;;;;;;9.63;100.00;98696.53;6248484;28;20733;-59
2023/09/05 01:45:47;;;;;;;5.20;3.70;;;;;;;9.60;100.00;98693.47;6263964;28;20236;-58
2023/09/05 01:48:49;;;;;;;4.67;3.60;;;;;;;9.56;100.00;98693.91;6264833;28;20233;-58
2023/09/05 01:51:53;;;;;;;4.27;3.67;;;;;;;9.55;100.00;98697.56;6263633;28;20242;-59
2023/09/05 01:54:55;;;;;;;4.27;3.83;;;;;;;9.56;100.00;98690.44;6262567;28;20277;-59
2023/09/05 01:57:57;;;;;;;4.60;4.10;;;;;;;9.56;100.00;98691.25;6258935;28;20230;-59
2023/09/05 02:01:03;;;;;;;6.13;3.90;;;;;;;9.40;100.00;98666.94;6248146;28;20664;-57
2023/09/05 02:04:06;;;;;;;4.53;3.90;;;;;;;9.41;100.00;98688.03;6266152;28;20616;-58
2023/09/05 02:07:09;;;;;;;5.43;4.10;;;;;;;9.48;100.00;98699.44;6263091;28;20224;-58
2023/09/05 02:10:11;;;;;;;4.90;4.00;;;;;;;9.44;100.00;98700.91;6263507;28;20327;-59
2023/09/05 02:13:13;;;;;;;4.13;3.73;;;;;;;9.42;100.00;98691.50;6256381;28;20744;-55
2023/09/05 02:16:18;;;;;;;5.00;3.50;;;;;;;9.41;100.00;98695.16;6263368;28;20232;-59
2023/09/05 02:19:23;;;;;;;4.27;3.63;;;;;;;9.42;100.00;98691.50;6263556;28;20249;-58
2023/09/05 02:22:25;;;;;;;4.30;3.63;;;;;;;9.48;100.00;98688.81;6266566;28;20361;-59
2023/09/05 02:25:27;;;;;;;3.80;3.50;;;;;;;9.54;100.00;98687.16;6265746;28;20323;-58
2023/09/05 02:28:30;;;;;;;3.77;3.40;;;;;;;9.57;100.00;98686.75;6245983;28;20241;-55
2023/09/05 02:31:32;;;;;;;4.33;3.50;;;;;;;9.51;100.00;98684.94;6263269;28;20224;-58
2023/09/05 02:34:35;;;;;;;4.60;3.60;;;;;;;9.37;100.00;98683.34;6264371;28;20230;-58
2023/09/05 02:37:38;;;;;;;5.37;3.90;;;;;;;9.43;100.00;98698.44;6264732;28;20255;-59
2023/09/05 02:40:46;;;;;;;3.80;3.50;;;;;;;9.42;100.00;98705.63;6265544;28;20236;-58
2023/09/05 02:43:49;;;;;;;4.40;3.40;;;;;;;9.44;100.00;98697.41;6259611;28;20240;-58
2023/09/05 02:46:51;;;;;;;4.20;3.57;;;;;;;9.48;100.00;98698.63;6263690;28;20225;-59
2023/09/05 02:49:54;;;;;;;3.23;2.93;;;;;;;9.47;100.00;98699.66;6262849;28;20238;-58
2023/09/05 02:52:56;;;;;;;5.33;4.03;;;;;;;9.48;100.00;98698.63;6262014;28;20264;-58
2023/09/05 02:55:59;;;;;;;4.67;3.10;;;;;;;9.50;100.00;98691.25;6262561;28;20669;-59
2023/09/05 02:59:01;;;;;;;5.37;3.70;;;;;;;9.40;100.00;98694.34;6264792;28;20232;-56
2023/09/05 03:02:03;;;;;;;8.60;4.60;;;;;;;9.15;100.00;98669.47;6246603;28;20774;-57
2023/09/05 03:05:07;;;;;;;5.77;4.17;;;;;;;9.23;100.00;98693.19;6246860;28;20712;-59
2023/09/05 03:08:09;;;;;;;4.23;3.80;;;;;;;9.16;100.00;98697.69;6263619;28;20245;-58
2023/09/05 03:11:15;;;;;;;6.00;3.83;;;;;;;9.10;100.00;98694.00;6262249;28;20243;-57
2023/09/05 03:14:17;;;;;;;5.07;4.00;;;;;;;8.95;100.00;98670.31;6263024;28;20583;-58
2023/09/05 03:17:19;;;;;;;7.00;4.33;;;;;;;9.05;100.00;98699.94;6267671;28;20644;-55
2023/09/05 03:20:25;;;;;;;5.53;4.30;;;;;;;9.02;100.00;98699.56;6265887;28;20243;-56
2023/09/05 03:23:28;;;;;;;5.97;4.00;;;;;;;9.02;100.00;98697.72;6269371;28;20247;-58
2023/09/05 03:26:30;;;;;;;5.10;4.50;;;;;;;8.96;100.00;98681.75;6265651;28;20235;-58
2023/09/05 03:29:33;;;;;;;4.80;4.37;;;;;;;8.98;100.00;98704.47;6262423;28;20747;-58
2023/09/05 03:32:35;;;;;;;7.93;4.40;;;;;;;8.98;100.00;98706.31;6268219;28;20233;-57
2023/09/05 03:35:38;;;;;;;4.33;3.77;;;;;;;8.98;100.00;98701.81;6268069;28;20413;-59
2023/09/05 03:38:40;;;;;;;5.40;3.93;;;;;;;8.98;100.00;98695.69;6267001;28;20238;-58
2023/09/05 03:41:42;;;;;;;4.93;4.10;;;;;;;8.55;100.00;98637.66;6264988;28;20248;-58
2023/09/05 03:44:44;;;;;;;4.77;4.10;;;;;;;8.99;100.00;98705.28;6272232;28;20255;-55
2023/09/05 03:47:47;;;;;;;4.70;4.20;;;;;;;8.92;100.00;98685.88;6253915;28;20717;-56
2023/09/05 03:51:01;;;;;;;4.03;3.60;;;;;;;9.01;100.00;98701.41;6262874;28;20360;-58
2023/09/05 03:54:04;;;;;;;4.23;3.80;;;;;;;8.97;100.00;98705.50;6268046;28;20326;-55
2023/09/05 03:57:07;;;;;;;5.07;4.03;;;;;;;8.95;100.00;98707.53;6267624;28;20197;-59
2023/09/05 04:00:13;;;;;;;4.20;3.80;;;;;;;8.94;100.00;98707.75;6266951;28;20719;-59
2023/09/05 04:03:16;;;;;;;4.77;4.17;;;;;;;8.85;100.00;98687.72;6244784;28;20676;-57
2023/09/05 04:06:18;;;;;;;4.77;4.27;;;;;;;8.82;100.00;98696.09;6266029;28;20656;-58
2023/09/05 04:09:20;;;;;;;5.07;3.73;;;;;;;8.76;100.00;98703.84;6262971;28;20226;-58
2023/09/05 04:12:23;;;;;;;4.40;4.00;;;;;;;8.76;100.00;98700.38;6265701;28;20305;-57
2023/09/05 04:15:25;;;;;;;4.70;4.10;;;;;;;8.73;100.00;98703.47;6266370;28;20236;-58
2023/09/05 04:18:27;;;;;;;4.87;3.60;;;;;;;8.69;100.00;98705.72;6265834;28;20227;-57
2023/09/05 04:21:29;;;;;;;4.60;4.10;;;;;;;8.77;100.00;98717.97;6265294;28;20589;-59
2023/09/05 04:24:32;;;;;;;4.40;4.00;;;;;;;8.77;100.00;98718.78;6268334;28;20242;-58
2023/09/05 04:27:34;;;;;;;5.87;4.60;;;;;;;8.74;100.00;98710.41;6262389;28;20237;-58
2023/09/05 04:30:36;;;;;;;4.80;4.10;;;;;;;8.68;100.00;98712.03;6266338;28;20238;-58
2023/09/05 04:33:40;;;;;;;5.70;4.20;;;;;;;8.58;100.00;98700.19;6263836;28;20237;-58
2023/09/05 04:36:43;;;;;;;5.23;4.30;;;;;;;8.63;100.00;98706.53;6267253;28;20236;-57
2023/09/05 04:39:47;;;;;;;5.00;4.50;;;;;;;8.64;100.00;98715.31;6247841;28;20262;-57
2023/09/05 04:42:50;;;;;;;5.03;3.90;;;;;;;8.67;100.00;98720.19;6249575;28;20245;-59
2023/09/05 04:45:54;;;;;;;6.57;4.93;;;;;;;8.73;100.00;98719.41;6262516;28;20573;-58
2023/09/05 04:48:56;;;;;;;4.40;4.00;;;;;;;8.83;100.00;98722.47;6264517;28;20240;-55
2023/09/05 04:51:58;;;;;;;5.47;3.93;;;;;;;8.89;100.00;98723.50;6266628;28;20222;-58
2023/09/05 04:55:00;;;;;;;6.37;3.70;;;;;;;8.92;100.00;98729.22;6264900;28;20328;-58
2023/09/05 04:58:03;;;;;;;4.43;3.93;;;;;;;8.94;100.00;98744.94;6267364;28;20881;-59
2023/09/05 05:01:05;;;;;;;3.97;3.50;;;;;;;8.94;100.00;98744.94;6263037;28;20235;-58
2023/09/05 05:04:08;;;;;;;3.97;3.43;;;;;;;8.94;100.00;98742.28;6264954;28;20235;-55
2023/09/05 05:07:11;;;;;;;6.63;4.27;;;;;;;8.90;100.00;98736.56;6263796;28;20235;-59
2023/09/05 05:10:13;;;;;;;6.93;5.93;;;;;;;8.88;100.00;98735.13;6266571;28;20232;-57
2023/09/05 05:13:15;;;;;;;8.67;6.20;;;;;;;8.88;100.00;98741.28;6264868;28;20306;-59
2023/09/05 05:16:18;;;;;;;7.10;5.67;;;;;;;8.89;100.00;98739.44;6263874;28;20228;-61
2023/09/05 05:19:23;;;;;;;5.60;4.60;;;;;;;8.98;100.00;98743.53;6264069;28;20256;-59
2023/09/05 05:22:25;;;;;;;4.93;4.27;;;;;;;9.04;100.00;98734.72;6262908;28;20618;-58
2023/09/05 05:25:28;;;;;;;4.17;3.80;;;;;;;9.05;100.00;98745.13;6265446;28;20700;-45
2023/09/05 05:28:30;;;;;;;4.13;3.70;;;;;;;9.06;100.00;98745.94;6265960;28;20977;-46
2023/09/05 05:31:36;;;;;;;4.53;4.13;;;;;;;9.08;100.00;98746.56;6262787;28;20231;-46
2023/09/05 05:34:38;;;;;;;5.57;3.93;;;;;;;9.07;100.00;98744.94;6266106;28;20234;-48
2023/09/05 05:37:40;;;;;;;5.03;4.23;;;;;;;9.10;100.00;98751.69;6265832;28;20233;-48
2023/09/05 05:40:42;;;;;;;6.43;4.90;;;;;;;9.07;100.00;98734.31;6261676;28;20391;-47
2023/09/05 05:43:45;;;;;;;5.63;4.13;;;;;;;9.11;100.00;98738.16;6266673;28;20233;-48
2023/09/05 05:46:47;;;;;;;4.47;4.07;;;;;;;9.02;100.00;98737.59;6268516;28;20291;-49
2023/09/05 05:49:49;;;;;;;4.50;3.90;;;;;;;9.16;100.00;98748.19;6270220;28;20244;-48
2023/09/05 05:52:52;;;;;;;5.40;4.30;;;;;;;9.18;100.00;98746.97;6269575;28;20267;-50
2023/09/05 05:55:54;;;;;;;6.30;4.30;;;;;;;9.22;100.00;98745.53;6261700;28;20236;-58
2023/09/05 05:58:56;;;;;;;6.17;3.90;;;;;;;9.23;100.00;98746.34;6264892;28;20265;-58
2023/09/05 06:01:59;;;;;;;4.40;4.00;;;;;;;9.26;100.00;98740.59;6263952;28;20232;-55
2023/09/05 06:05:01;;;;;;;5.47;4.47;;;;;;;9.31;100.00;98738.19;6260699;28;20244;-58
2023/09/05 06:08:03;;;;;;;6.27;4.93;;;;;;;9.35;100.00;98743.88;6262659;28;20315;-58
2023/09/05 06:11:06;;;;;;;5.57;5.07;;;;;;;9.42;100.00;98747.34;6262096;28;20240;-56
2023/09/05 06:14:09;;;;;;;5.50;4.90;;;;;;;9.45;100.00;98742.41;6263287;28;20712;-58
2023/09/05 06:17:11;;;;;;;5.30;4.70;;;;;;;9.52;100.00;98753.06;6263401;28;20465;-59
2023/09/05 06:20:14;;;;;;;6.73;5.27;;;;;;;9.58;100.00;98757.53;6261242;28;20236;-59
2023/09/05 06:23:16;;;;;;;4.73;4.33;;;;;;;9.65;100.00;98753.00;6264832;28;20230;-57
2023/09/05 06:26:18;;;;;;;5.37;4.87;;;;;;;9.71;100.00;98754.84;6259498;28;20232;-58
2023/09/05 06:29:21;;;;;;;5.97;5.10;;;;;;;9.85;100.00;98763.59;6264179;28;20237;-59
2023/09/05 06:32:23;;;;;;;5.20;4.70;;;;;;;9.93;100.00;98759.88;6264176;28;20225;-58
2023/09/05 06:35:26;;;;;;;4.93;4.53;;;;;;;9.96;100.00;98751.47;6265630;28;20218;-58
2023/09/05 06:38:28;;;;;;;6.60;4.90;;;;;;;10.18;100.00;98763.44;6262968;28;20223;-58
2023/09/05 06:41:30;;;;;;;5.53;4.40;;;;;;;10.32;100.00;98766.91;6263068;28;20619;-59
2023/09/05 06:44:33;;;;;;;5.50;4.80;;;;;;;10.43;100.00;98760.88;6269121;28;20229;-59
2023/09/05 06:47:35;;;;;;;5.70;4.90;;;;;;;10.55;100.00;98771.69;6253023;28;20252;-60
2023/09/05 06:50:37;;;;;;;6.53;4.60;;;;;;;10.69;100.00;98767.91;6267361;28;20888;-58
2023/09/05 06:53:40;;;;;;;6.90;4.80;;;;;;;10.82;100.00;98772.31;6266796;28;20312;-56
2023/09/05 06:56:43;;;;;;;4.93;4.53;;;;;;;10.97;100.00;98764.00;6254410;28;20238;-58
2023/09/05 06:59:45;;;;;;;5.40;4.90;;;;;;;11.05;100.00;98753.88;6252031;28;20237;-60
2023/09/05 07:02:50;;;;;;;5.40;4.50;;;;;;;11.27;100.00;98761.47;6267099;28;20236;-58
2023/09/05 07:05:53;;;;;;;4.83;4.23;;;;;;;11.33;100.00;98744.63;6267789;28;20240;-58
2023/09/05 07:08:58;;;;;;;4.80;4.37;;;;;;;11.60;100.00;98763.84;6265520;28;20290;-55
2023/09/05 07:12:01;;;;;;;4.70;4.30;;;;;;;11.76;100.00;98768.56;6267695;28;20318;-59
2023/09/05 07:15:03;;;;;;;4.80;4.40;;;;;;;11.95;100.00;98772.09;6265742;28;20226;-59
2023/09/05 07:18:06;;;;;;;4.80;4.33;;;;;;;12.14;100.00;98770.22;6249960;28;20703;-59
2023/09/05 07:21:08;;;;;;;4.50;4.00;;;;;;;12.34;100.00;98767.28;6248632;28;20249;-58
2023/09/05 07:24:13;;;;;;;4.73;4.23;;;;;;;12.56;100.00;98780.94;6269749;28;20248;-59
2023/09/05 07:27:16;;;;;;;4.60;4.17;;;;;;;12.77;100.00;98774.28;6267865;28;20249;-58
2023/09/05 07:30:18;;;;;;;5.30;4.20;;;;;;;12.99;100.00;98777.22;6268716;28;20218;-58
2023/09/05 07:33:21;;;;;;;4.70;4.20;;;;;;;13.18;100.00;98779.59;6266234;28;21003;-58
2023/09/05 07:36:23;;;;;;;5.00;4.50;;;;;;;13.38;100.00;98781.94;6266429;28;20241;-58
2023/09/05 07:39:25;;;;;;;5.00;4.43;;;;;;;13.58;100.00;98776.25;6264744;28;20233;-53
2023/09/05 07:42:28;;;;;;;4.63;3.97;;;;;;;13.80;100.00;98772.97;6265051;28;20234;-60
2023/09/05 07:45:32;;;;;;;4.13;3.70;;;;;;;14.01;100.00;98776.88;6266998;28;20584;-59
2023/09/05 07:48:34;;;;;;;4.10;3.70;;;;;;;14.21;100.00;98788.00;6270127;28;20267;-58
2023/09/05 07:51:36;;;;;;;4.90;4.03;;;;;;;14.42;99.44;98775.81;6266316;28;20236;-60
2023/09/05 07:54:39;;;;;;;3.90;3.50;;;;;;;14.58;98.89;98775.09;6266428;28;20219;-59
2023/09/05 07:57:41;;;;;;;4.30;3.83;;;;;;;14.65;97.29;98764.19;6265578;28;20230;-59
2023/09/05 08:00:44;;;;;;;3.93;3.63;;;;;;;14.88;96.06;98785.53;6250297;28;20730;-60
2023/09/05 08:03:49;;;;;;;4.67;3.70;;;;;;;15.04;95.87;98781.22;6264331;28;20237;-59
2023/09/05 08:06:51;;;;;;;4.80;3.40;;;;;;;15.19;92.34;98780.66;6266883;28;20246;-59
2023/09/05 08:09:54;;;;;;;4.10;3.60;;;;;;;15.38;91.01;98782.03;6249806;28;20316;-59
2023/09/05 08:12:56;;;;;;;5.30;3.10;;;;;;;15.54;87.63;98782.25;6261980;28;20824;-60
2023/09/05 08:15:58;;;;;;;4.10;3.33;;;;;;;15.70;87.44;98776.06;6261510;28;20313;-59
2023/09/05 08:19:01;;;;;;;4.87;3.20;;;;;;;15.90;86.77;98773.66;6267251;28;20279;-58
2023/09/05 08:22:05;;;;;;;5.93;3.47;;;;;;;16.11;83.88;98768.53;6264569;28;20258;-60
2023/09/05 08:25:09;;;;;;;3.57;3.07;;;;;;;16.24;83.26;98765.44;6267214;28;20239;-59
2023/09/05 08:28:12;;;;;;;4.97;3.03;;;;;;;16.35;81.39;98755.63;6267881;28;20239;-60
2023/09/05 08:31:14;;;;;;;3.47;3.17;;;;;;;16.63;79.58;98768.81;6268568;28;20264;-57
2023/09/05 08:34:19;;;;;;;3.40;2.90;;;;;;;16.69;80.77;98759.72;6268617;28;20704;-60
2023/09/05 08:37:22;;;;;;;2.97;2.77;;;;;;;16.76;80.27;98767.66;6264768;28;20646;-59
2023/09/05 08:40:24;;;;;;;5.67;3.37;;;;;;;16.85;78.85;98768.81;6268304;28;20230;-60
2023/09/05 08:43:28;;;;;;;3.50;3.20;;;;;;;17.07;72.52;98762.53;6264721;28;20235;-61
2023/09/05 08:46:31;;;;;;;4.27;3.30;;;;;;;17.35;69.13;98756.00;6263583;28;20293;-60
2023/09/05 08:49:33;;;;;;;4.63;2.90;;;;;;;17.51;71.81;98763.91;6266158;28;20231;-60
2023/09/05 08:52:41;;;;;;;5.07;2.80;;;;;;;17.59;73.48;98754.53;6266281;28;20231;-60
2023/09/05 08:55:45;;;;;;;3.53;3.07;;;;;;;17.70;73.30;98761.59;6265538;28;20667;-60
2023/09/05 08:58:47;;;;;;;3.47;3.17;;;;;;;17.87;65.11;98760.63;6265153;28;20231;-60
2023/09/05 09:01:50;;;;;;;3.93;3.00;;;;;;;18.13;61.17;98767.75;6266863;28;20245;-60
2023/09/05 09:04:58;;;;;;;5.00;3.00;;;;;;;18.61;56.37;98751.41;6266611;28;20600;-59
2023/09/05 09:08:02;;;;;;;3.63;3.07;;;;;;;18.59;58.84;98756.28;6261745;28;21006;-59
2023/09/05 09:11:08;;;;;;;3.60;2.77;;;;;;;18.68;58.00;98751.97;6261674;28;20227;-60
2023/09/05 09:14:10;;;;;;;3.50;2.77;;;;;;;18.75;54.18;98742.56;6244418;28;20846;-59
2023/09/05 09:17:13;;;;;;;4.30;2.60;;;;;;;18.88;53.53;98745.81;6263932;28;20219;-60
2023/09/05 09:20:18;;;;;;;3.00;2.50;;;;;;;18.99;54.72;98744.72;6264651;28;20288;-60
2023/09/05 09:23:26;;;;;;;2.73;2.30;;;;;;;19.34;51.04;98742.00;6271382;28;20231;-61
2023/09/05 09:26:33;;;;;;;4.10;2.63;;;;;;;19.45;51.11;98736.56;6260741;28;20792;-61
2023/09/05 09:29:39;;;;;;;3.07;2.67;;;;;;;19.40;51.61;98736.59;6260763;28;20598;-61
2023/09/05 09:32:50;;;;;;;3.70;2.70;;;;;;;19.46;50.30;98730.91;6261592;28;20602;-58
2023/09/05 09:36:22;;;;;;;3.63;2.63;;;;;;;19.48;50.90;98719.81;6265734;28;20220;-61
2023/09/05 09:39:25;;;;;;;3.50;2.73;;;;;;;19.44;50.42;98716.84;6192714;28;20229;-61
2023/09/05 09:42:28;;;;;;;3.27;2.37;;;;;;;19.45;52.02;98713.06;6103005;28;20327;-61
2023/09/05 09:45:32;;;;;;;4.30;3.03;;;;;;;19.64;49.63;98713.31;6074815;28;20326;-60
2023/09/05 09:48:36;;;;;;;5.20;2.80;;;;;;;19.85;51.41;98716.75;6070989;28;20232;-61
2023/09/05 09:51:39;;;;;;;3.27;2.47;;;;;;;19.86;48.52;98709.47;6069006;28;20315;-61
2023/09/05 09:54:45;;;;;;;2.60;2.40;;;;;;;19.68;49.93;98706.25;6070974;28;20244;-61
2023/09/05 09:58:01;;;;;;;3.93;2.60;;;;;;;19.67;50.81;98701.94;6071823;28;20334;-61
2023/09/05 10:01:06;;;;;;;3.07;2.37;;;;;;;19.74;50.40;98698.94;6070713;28;20297;-60
2023/09/05 10:04:08;;;;;;;3.20;2.90;;;;;;;19.82;50.65;98690.28;6069725;28;20239;-61
2023/09/05 10:07:14;;;;;;;3.37;2.50;;;;;;;19.93;52.27;98691.03;6072064;28;20247;-51
2023/09/05 10:10:19;;;;;;;4.07;2.50;;;;;;;19.97;51.50;98675.88;6073712;28;20702;-51
2023/09/05 10:13:26;;;;;;;3.67;2.60;;;;;;;20.09;51.00;98693.38;6068938;28;20241;-51
2023/09/05 10:16:30;;;;;;;3.20;2.90;;;;;;;20.16;49.55;98698.50;6106711;28;20294;-52
2023/09/05 10:19:33;;;;;;;5.37;2.87;;;;;;;20.23;49.62;98688.16;6200323;28;20607;-53
2023/09/05 10:22:44;;;;;;;4.33;2.50;;;;;;;20.20;47.92;98677.91;6118672;28;20242;-51
2023/09/05 10:25:48;;;;;;;3.10;2.70;;;;;;;20.26;49.09;98675.97;6123429;28;20724;-51
2023/09/05 10:28:56;;;;;;;3.60;2.77;;;;;;;18.52;49.07;98420.06;6159836;22;20508;-94
2023/09/05 10:31:58;;;;;;;2.73;2.43;;;;;;;19.93;47.99;98628.81;6289880;28;20829;-91
2023/09/05 10:35:04;;;;;;;3.67;3.10;;;;;;;19.84;48.84;98613.19;6305493;28;20730;-91
2023/09/05 10:38:07;;;;;;;4.00;2.67;;;;;;;20.22;49.21;98658.69;6271411;28;20245;-92
2023/09/05 10:41:39;;;;;;;2.70;2.30;;;;;;;19.76;46.62;98551.59;6283249;28;20234;-92
2023/09/05 10:44:50;;;;;;;3.37;2.40;;;;;;;20.65;47.66;98667.88;6278103;28;20225;-92
2023/09/05 10:47:59;;;;;;;2.67;2.30;;;;;;;20.07;46.70;98589.25;6288190;28;20230;-92
2023/09/05 10:51:08;;;;;;;4.93;2.50;;;;;;;20.57;46.31;98669.28;6260614;28;20226;-93
2023/09/05 10:54:28;;;;;;;4.83;2.70;;;;;;;19.47;45.47;98466.88;6273770;28;20689;-92
2023/09/05 10:57:37;;;;;;;4.83;2.33;;;;;;;19.72;45.83;98522.69;6279728;28;20619;-90
2023/09/05 11:00:41;;;;;;;3.13;2.83;;;;;;;19.71;44.17;98465.13;6299564;28;20230;-92
2023/09/05 11:03:44;;;;;;;3.87;3.00;;;;;;;20.14;46.19;98546.44;6282001;28;20221;-92
2023/09/05 11:07:14;;;;;;;4.87;3.23;;;;;;;20.99;46.40;98667.03;6278168;28;20249;-93
2023/09/05 11:10:34;;;;;;;3.87;3.47;;;;;;;20.86;45.50;98650.34;6294987;28;20278;-91
2023/09/05 11:13:48;;;;;;;3.10;2.77;;;;;;;20.27;45.76;98569.34;6293720;28;20237;-92
2023/09/05 11:16:52;;;;;;;4.00;2.97;;;;;;;20.87;46.50;98654.66;6288915;28;20230;-92
2023/09/05 11:19:54;;;;;;;6.60;3.20;;;;;;;20.30;46.83;98555.25;6292938;28;20229;-90
2023/09/05 11:22:57;;;;;;;3.17;2.80;;;;;;;20.34;46.36;98569.81;6270019;28;20233;-92
2023/09/05 11:26:02;;;;;;;3.83;3.20;;;;;;;20.34;46.74;98538.19;6287697;28;20232;-92
2023/09/05 11:29:05;;;;;;;4.63;2.90;;;;;;;20.34;45.67;98500.28;6264324;28;20315;-91
2023/09/05 11:32:12;;;;;;;4.23;3.23;;;;;;;21.03;44.33;98565.94;6271257;28;20238;-91
2023/09/05 11:35:15;;;;;;;3.23;2.93;;;;;;;20.28;44.31;98432.94;6283780;28;20225;-93
2023/09/05 11:38:23;;;;;;;3.57;2.93;;;;;;;20.89;44.51;98543.34;6288227;28;20230;-91
2023/09/05 11:41:39;;;;;;;4.97;2.80;;;;;;;21.19;45.07;98582.81;6277336;28;20371;-96
2023/09/05 11:44:42;;;;;;;4.60;2.83;;;;;;;21.13;41.99;98576.66;6279364;28;20226;-95
2023/09/05 11:47:49;;;;;;;4.87;2.53;;;;;;;20.44;43.28;98441.72;6272459;28;20218;-95
2023/09/05 11:50:52;;;;;;;4.53;3.40;;;;;;;21.10;41.95;98563.69;6289650;28;20312;-95
2023/09/05 11:53:55;;;;;;;3.40;2.73;;;;;;;20.53;42.61;98489.56;6289234;28;20312;-95
2023/09/05 11:56:58;;;;;;;3.20;2.77;;;;;;;20.94;42.71;98547.91;6270250;28;20529;-96
2023/09/05 12:00:01;;;;;;;3.63;2.87;;;;;;;21.04;42.48;98574.88;6271826;28;20233;-96
2023/09/05 12:03:08;;;;;;;3.17;2.77;;;;;;;21.03;42.55;98544.28;6290457;28;20229;-95
2023/09/05 12:06:11;;;;;;;2.57;2.37;;;;;;;20.60;42.91;98465.66;6279961;28;20198;-95
2023/09/05 12:09:14;;;;;;;3.10;2.67;;;;;;;20.42;42.17;98433.09;6274723;28;20213;-95
2023/09/05 12:12:20;;;;;;;4.37;2.33;;;;;;;21.43;43.19;98573.88;6281780;28;20217;-94
2023/09/05 12:15:34;;;;;;;4.17;2.47;;;;;;;21.11;42.04;98478.59;6298898;28;20238;-95
2023/09/05 12:18:37;;;;;;;3.00;2.60;;;;;;;21.50;42.35;98529.06;6288202;28;20266;-95
2023/09/05 12:21:47;;;;;;;2.80;2.47;;;;;;;20.50;43.41;98378.34;6284812;28;20734;-93
2023/09/05 12:25:05;;;;;;;4.17;2.67;;;;;;;21.98;42.84;98602.16;6292782;28;20233;-94
2023/09/05 12:28:20;;;;;;;5.57;2.60;;;;;;;20.81;43.54;98439.16;6267079;28;20241;-94
2023/09/05 12:31:23;;;;;;;3.20;2.60;;;;;;;20.51;44.04;98363.72;6272478;28;20234;-95
2023/09/05 12:34:25;;;;;;;4.00;2.67;;;;;;;21.31;41.34;98441.50;6294493;28;20237;-94
2023/09/05 12:37:28;;;;;;;3.27;2.97;;;;;;;22.09;42.96;98611.75;6289682;28;20229;-94
2023/09/05 12:40:34;;;;;;;3.37;2.80;;;;;;;21.22;42.17;98492.81;6282114;28;20229;-94
2023/09/05 12:43:36;;;;;;;4.53;3.30;;;;;;;20.91;41.75;98427.38;6273667;28;20230;-94
2023/09/05 12:46:38;;;;;;;2.50;2.20;;;;;;;21.26;42.61;98493.84;6268605;28;20548;-94
2023/09/05 12:49:42;;;;;;;3.10;2.27;;;;;;;20.40;44.62;98359.50;6270918;28;20233;-94
2023/09/05 12:52:54;;;;;;;3.00;2.50;;;;;;;21.46;43.38;98508.25;6271310;28;20248;-94
2023/09/05 12:55:57;;;;;;;3.03;2.47;;;;;;;20.60;44.04;98376.31;6287120;28;20237;-95
2023/09/05 12:59:03;;;;;;;2.70;2.20;;;;;;;21.04;43.01;98442.94;6270892;28;20236;-94
2023/09/05 13:02:05;;;;;;;3.70;2.50;;;;;;;21.51;40.79;98503.56;6269959;28;20233;-91
2023/09/05 13:05:08;;;;;;;3.83;2.50;;;;;;;22.13;41.69;98572.13;6275794;28;20226;-91
2023/09/05 13:08:10;;;;;;;2.77;2.37;;;;;;;21.37;42.50;98479.06;6266462;28;20222;-90
2023/09/05 13:11:13;;;;;;;3.30;2.50;;;;;;;21.26;43.13;98483.00;6266224;28;20218;-91
2023/09/05 13:14:16;;;;;;;2.67;2.47;;;;;;;21.37;43.39;98470.94;6273072;28;20233;-90
2023/09/05 13:17:19;;;;;;;2.73;2.47;;;;;;;21.30;44.11;98475.94;6280883;28;20320;-91
2023/09/05 13:20:21;;;;;;;2.87;2.20;;;;;;;21.33;44.58;98490.81;6286549;28;20278;-91
2023/09/05 13:23:24;;;;;;;2.67;2.47;;;;;;;20.85;45.42;98418.53;6295359;28;20230;-91
2023/09/05 13:26:26;;;;;;;3.03;2.17;;;;;;;20.94;43.99;98431.44;6282575;28;20736;-91
2023/09/05 13:29:28;;;;;;;3.63;2.57;;;;;;;21.72;40.69;98486.97;6291684;28;20344;-91
2023/09/05 13:32:31;;;;;;;3.43;2.70;;;;;;;20.94;40.91;98361.81;6284287;28;20287;-91
2023/09/05 13:35:35;;;;;;;3.63;2.30;;;;;;;21.34;41.84;98447.16;6269413;28;20229;-90
2023/09/05 13:38:37;;;;;;;4.07;2.17;;;;;;;21.26;42.82;98417.97;6275312;28;20225;-90
2023/09/05 13:41:41;;;;;;;3.33;2.60;;;;;;;21.38;40.87;98431.13;6284160;28;20241;-91
2023/09/05 13:44:44;;;;;;;4.27;2.40;;;;;;;21.45;40.92;98428.81;6302017;28;20233;-91
2023/09/05 13:47:46;;;;;;;3.70;2.60;;;;;;;22.20;41.03;98503.88;6284079;28;20240;-91
2023/09/05 13:50:48;;;;;;;3.03;2.73;;;;;;;21.01;41.60;98369.56;6251679;28;20314;-91
2023/09/05 13:53:52;;;;;;;3.43;2.47;;;;;;;21.37;41.28;98430.28;6268186;28;20226;-90
2023/09/05 13:56:55;;;;;;;3.10;2.20;;;;;;;21.65;43.95;98476.50;6275152;28;20222;-90
2023/09/05 13:59:57;;;;;;;4.47;2.27;;;;;;;21.05;44.36;98395.78;6277769;28;20245;-90
2023/09/05 14:03:00;;;;;;;4.00;2.90;;;;;;;21.35;44.96;98462.31;6276927;28;20237;-90
2023/09/05 14:06:02;;;;;;;3.10;2.43;;;;;;;20.76;45.52;98371.50;6267934;28;20229;-90
2023/09/05 14:09:05;;;;;;;2.77;2.53;;;;;;;21.47;44.44;98493.59;6268697;28;20209;-89
2023/09/05 14:12:07;;;;;;;3.40;2.50;;;;;;;20.53;43.90;98327.13;6285887;28;20202;-94
2023/09/05 14:15:10;;;;;;;2.97;2.20;;;;;;;21.52;44.32;98469.13;6278438;28;20221;-94
2023/09/05 14:18:13;;;;;;;3.47;2.33;;;;;;;21.64;42.47;98475.72;6266219;28;20220;-93
2023/09/05 14:21:15;;;;;;;5.30;2.60;;;;;;;21.71;41.84;98461.78;6296100;28;20252;-94
2023/09/05 14:24:19;;;;;;;3.63;2.13;;;;;;;21.49;42.55;98432.56;6271475;28;20216;-95